Due to severe server failure at the provider, not all demo sites are operational. Will take some days to rebuilt everything.

Demonstration site - Click on the  for more information

This is an optional block. Switch it on/off in your settings-file: $SITE['bannerTop'] = false; or $SITE['bannerBottom'] = false;

You can display ads, any other important text or photo’s using text / html or PHP code.

You can place one or more at the top and or bottom and it can all be different for content / size .



Visit our other weather sites:

Template documentation
and downloads

And another site



Nearby METAR Reports


Warning: A non-numeric value encountered in /home/weathert/public_html/weather28/metar/wsMetarTxt.php on line 609

Warning: A non-numeric value encountered in /home/weathert/public_html/weather28/metar/wsMetarTxt.php on line 609

Warning: A non-numeric value encountered in /home/weathert/public_html/weather28/metar/wsMetarTxt.php on line 609

Warning: A non-numeric value encountered in /home/weathert/public_html/weather28/metar/wsMetarTxt.php on line 609

Warning: A non-numeric value encountered in /home/weathert/public_html/weather28/metar/wsMetarTxt.php on line 609

Warning: A non-numeric value encountered in /home/weathert/public_html/weather28/metar/wsMetarTxt.php on line 609
   
EBAW - Antwerp
Updated: 25-07-2021 13:20
Partly Cloudy  
Partly Cloudy  
   Wind: South 9.3 km/h
Wind: South 9.3 km/h
Temperature: 25°C
Dew Point: 15°C
Humidity: 54%
Barometer: 1007 hPa
Clouds: Partly Cloudy
Visibility: More than 10 km
Cloud details: Few Clouds 3300 ft,
Partly Cloudy 4000 ft
EBAW 251120Z 19005KT 100V250 9999 FEW033TCU SCT040 25/15 Q1007 TEMPO 4500 SHRA
EBLG - Liège
Updated: 25-07-2021 13:20
Few Clouds  
Few Clouds  
   Wind: SSW 18.5 km/h
Wind: SSW 18.5 km/h
Temperature: 22°C
Dew Point: 13°C
Humidity: 57%
Barometer: 1009 hPa
Clouds: Few Clouds
Visibility: More than 10 km
Cloud details: Few Clouds 3600 ft
EBLG 251120Z 21010KT 9999 FEW036 22/13 Q1009 NOSIG
EBCV - Mons/Bergen
Updated: 25-07-2021 13:13
Mostly Cloudy  
Mostly Cloudy  
   Wind: South 11.1 km/h
Wind: South 11.1 km/h
Temperature: 19°C
Dew Point: 17°C
Humidity: 88%
Barometer: 1008 hPa
Clouds: Mostly Cloudy
Cloud details: Mostly Cloudy 3300 ft,
Mostly Cloudy 3800 ft
EBCV 251113Z AUTO 19006KT //// BKN033/// BKN038/// 19/17 Q1008 BLU
EHBK - Maastricht
Updated: 25-07-2021 13:25
Partly Cloudy  
Partly Cloudy  
   Wind: SW 9.3 km/h
Wind: SW 9.3 km/h
Temperature: 22°C
Dew Point: 17°C
Humidity: 73%
Barometer: 1009 hPa
Clouds: Partly Cloudy
Visibility: More than 10 km
Cloud details: Few Clouds 1800 ft,
Partly Cloudy 4300 ft
EHBK 251125Z AUTO 23005KT 160V280 9999 FEW018CB SCT043 22/17 Q1009 REDZ TEMPO 5000 SHRA SCT020CB
ELLX - Luxemburg
Updated: 25-07-2021 13:20
Partly Cloudy  
Partly Cloudy  
   Wind: South 11.1 km/h
Wind: South 11.1 km/h
Temperature: 20°C
Dew Point: 15°C
Humidity: 73%
Barometer: 1010 hPa
Clouds: Partly Cloudy
Visibility: More than 10 km
Cloud details: Partly Cloudy 2500 ft
ELLX 251120Z 18006KT 140V220 9999 SCT025CB 20/15 Q1010 TEMPO 4000 SHRA BKN018CB
EBOS - Oostende
Updated: 25-07-2021 13:20
Partly Cloudy  
Partly Cloudy  
   Wind: SSE 16.7 km/h
Wind: SSE 16.7 km/h
Temperature: 21°C
Dew Point: 15°C
Humidity: 69%
Barometer: 1007 hPa
Clouds: Partly Cloudy
Visibility: More than 10 km
Cloud details: Partly Cloudy 2000 ft
EBOS 251120Z 15009KT 9999 SCT020 21/15 Q1007 NOSIG

Script developed by  Saratoga-weather.org Adapted for the template by  Weerstation Leuven

This is an optional block. Switch it on/off in your settings-file: $SITE['bannerTop'] = false; or $SITE['bannerBottom'] = false;

You can display ads, any other important text or photo’s using text / html or PHP code.

You can place one or more at the top and or bottom and it can all be different for content / size .